Terminal Aerodrome Forecast
Issued by NWS Burlington, VT

Home | Current Version | Previous Version | Text Only | Print | Product List | Glossary On
Versions: 1 2 3 4 5 6 7 8 9 10 11 12 13 14 15 16 17 18
697
FTUS41 KBTV 131132
TAFBTV
TAF
KBTV 131132Z 1312/1412 34012KT P6SM SCT040
      TEMPO 1312/1314 6SM -SHSN BKN015
     FM131400 33015KT P6SM BKN040
     FM141100 33009KT P6SM BKN140=

USA.gov is the U.S. government's official web portal to all federal, state and local government web resources and services.